createdAt,value
2018-07-28T00:01:28.472Z,22.23
2018-07-28T00:03:58.363Z,22.12
2018-07-28T00:06:27.809Z,22.12
2018-07-28T00:08:57.217Z,22.06
2018-07-28T00:11:26.868Z,21.92
2018-07-28T00:13:56.840Z,21.86
2018-07-28T00:16:26.807Z,21.85
2018-07-28T00:18:56.214Z,21.86
2018-07-28T00:21:25.604Z,21.82
2018-07-28T00:23:55.312Z,21.81
2018-07-28T00:26:25.473Z,21.77
2018-07-28T00:28:54.836Z,21.78
2018-07-28T00:31:24.846Z,21.73
2018-07-28T00:33:54.739Z,21.79
2018-07-28T00:36:24.108Z,21.82
2018-07-28T00:38:53.507Z,21.83
2018-07-28T00:41:23.461Z,21.80
2018-07-28T00:43:52.847Z,21.75
2018-07-28T00:46:22.245Z,21.63
2018-07-28T00:48:51.641Z,21.58
2018-07-28T00:51:21.024Z,21.58
2018-07-28T00:53:50.391Z,21.63
2018-07-28T00:56:19.800Z,21.68
2018-07-28T00:58:49.163Z,21.68
2018-07-28T01:01:19.696Z,21.61
2018-07-28T01:03:49.800Z,21.56
2018-07-28T01:06:19.787Z,21.54
2018-07-28T01:08:49.331Z,21.54
2018-07-28T01:11:19.880Z,21.53
2018-07-28T01:13:49.289Z,21.48
2018-07-28T01:16:19.329Z,21.41
2018-07-28T01:18:48.904Z,21.41
2018-07-28T01:21:18.607Z,21.33
2018-07-28T01:23:48.152Z,21.32
2018-07-28T01:26:17.553Z,21.29
2018-07-28T01:28:55.489Z,21.28
2018-07-28T01:31:25.225Z,21.32
2018-07-28T01:33:54.769Z,21.29
2018-07-28T01:36:24.512Z,21.28
2018-07-28T01:38:54.747Z,21.28
2018-07-28T01:41:24.386Z,21.27
2018-07-28T01:43:53.760Z,21.23
2018-07-28T01:46:28.196Z,21.30
2018-07-28T01:49:01.653Z,21.35
2018-07-28T01:51:31.668Z,21.30
2018-07-28T01:54:01.082Z,21.25
2018-07-28T01:56:30.766Z,21.27
2018-07-28T01:59:06.027Z,21.23
2018-07-28T02:01:37.384Z,21.26
2018-07-28T02:04:07.454Z,21.30
2018-07-28T02:06:36.994Z,21.31
2018-07-28T02:09:11.572Z,21.27
2018-07-28T02:11:41.671Z,21.33
2018-07-28T02:14:11.079Z,21.40
2018-07-28T02:16:40.566Z,21.40
2018-07-28T02:19:12.475Z,21.51
2018-07-28T02:21:43.789Z,21.50
2018-07-28T02:24:13.831Z,21.33
2018-07-28T02:26:43.262Z,21.29
2018-07-28T02:29:12.877Z,21.33
2018-07-28T02:31:42.633Z,21.36
2018-07-28T02:34:12.053Z,21.22
2018-07-28T02:36:41.460Z,21.12
2018-07-28T02:39:12.253Z,21.06
2018-07-28T02:41:41.929Z,21.08
2018-07-28T02:44:11.340Z,21.08
2018-07-28T02:46:40.726Z,21.00
2018-07-28T02:49:10.129Z,20.99
2018-07-28T02:51:39.575Z,21.05
2018-07-28T02:54:08.957Z,21.12
2018-07-28T02:56:38.324Z,21.24
2018-07-28T02:59:07.733Z,21.36
2018-07-28T03:01:37.750Z,21.34
2018-07-28T03:04:07.276Z,21.31
2018-07-28T03:06:36.672Z,21.15
2018-07-28T03:09:09.676Z,21.02
2018-07-28T03:11:39.600Z,20.98
2018-07-28T03:14:09.577Z,20.96
2018-07-28T03:16:39.306Z,20.89
2018-07-28T03:19:09.775Z,20.85
2018-07-28T03:21:39.138Z,20.75
2018-07-28T03:24:08.523Z,20.67
2018-07-28T03:26:37.894Z,20.65
2018-07-28T03:29:07.591Z,20.63
2018-07-28T03:31:38.097Z,20.69
2018-07-28T03:34:07.564Z,20.76
2018-07-28T03:36:37.255Z,20.79
2018-07-28T03:39:10.101Z,20.79
2018-07-28T03:41:40.874Z,20.85
2018-07-28T03:44:10.632Z,20.94
2018-07-28T03:46:40.054Z,20.96
2018-07-28T03:49:09.483Z,20.98
2018-07-28T03:51:39.371Z,20.99
2018-07-28T03:54:09.428Z,20.98
2018-07-28T03:56:39.754Z,21.04
2018-07-28T03:59:09.155Z,21.04
2018-07-28T04:01:38.530Z,21.02
2018-07-28T04:04:07.944Z,20.91
2018-07-28T04:06:37.582Z,20.79
2018-07-28T04:09:09.593Z,20.65
2018-07-28T04:11:40.906Z,20.63
2018-07-28T04:14:11.577Z,20.58
2018-07-28T04:16:41.463Z,20.60
2018-07-28T04:19:10.820Z,20.71
2018-07-28T04:21:40.203Z,20.81
2018-07-28T04:24:09.623Z,20.87
2018-07-28T04:26:39.151Z,20.99
2018-07-28T04:29:08.544Z,21.09
2018-07-28T04:31:37.933Z,21.20
2018-07-28T04:34:07.356Z,21.30
2018-07-28T04:36:36.724Z,21.40
2018-07-28T04:39:09.523Z,21.37
2018-07-28T04:41:40.020Z,21.38
2018-07-28T04:44:09.553Z,21.35
2018-07-28T04:46:38.909Z,21.35
2018-07-28T04:49:08.681Z,21.36
2018-07-28T04:51:38.916Z,21.33
2018-07-28T04:54:08.465Z,21.44
2018-07-28T04:56:37.849Z,21.53
2018-07-28T04:59:07.380Z,21.62
2018-07-28T05:01:37.004Z,21.71
2018-07-28T05:04:06.353Z,21.74
2018-07-28T05:06:35.781Z,21.82
2018-07-28T05:09:08.070Z,21.71
2018-07-28T05:11:38.547Z,21.61
2018-07-28T05:14:08.597Z,21.59
2018-07-28T05:16:37.960Z,21.72
2018-07-28T05:19:07.325Z,21.75
2018-07-28T05:21:37.829Z,21.64
2018-07-28T05:24:07.436Z,21.61
2018-07-28T05:26:37.164Z,21.69
2018-07-28T05:29:06.864Z,21.77
2018-07-28T05:31:36.953Z,21.75
2018-07-28T05:34:06.328Z,21.70
2018-07-28T05:36:35.692Z,21.77
2018-07-28T05:39:10.205Z,21.73
2018-07-28T05:41:41.036Z,21.69
2018-07-28T05:44:10.396Z,21.53
2018-07-28T05:46:39.724Z,21.51
2018-07-28T05:49:09.086Z,21.50
2018-07-28T05:51:38.963Z,21.61
2018-07-28T05:54:08.519Z,21.69
2018-07-28T05:56:37.876Z,21.81
2018-07-28T05:59:07.280Z,21.88
2018-07-28T06:01:36.626Z,21.90
2018-07-28T06:04:06.028Z,21.93
2018-07-28T06:06:35.368Z,22.00
2018-07-28T06:09:07.037Z,22.10
2018-07-28T06:11:37.356Z,22.26
2018-07-28T06:14:07.148Z,22.21
2018-07-28T06:16:37.107Z,22.26
2018-07-28T06:19:07.044Z,22.34
2018-07-28T06:21:36.427Z,22.48
2018-07-28T06:24:05.885Z,22.60
2018-07-28T06:26:35.276Z,22.70
2018-07-28T06:29:05.517Z,22.75
2018-07-28T06:31:35.422Z,22.78
2018-07-28T06:34:04.974Z,22.83
2018-07-28T06:36:38.111Z,22.93
2018-07-28T06:39:10.240Z,22.97
2018-07-28T06:41:40.728Z,23.02
2018-07-28T06:44:14.178Z,23.07
2018-07-28T06:46:44.144Z,23.19
2018-07-28T06:49:14.533Z,23.30
2018-07-28T06:51:43.924Z,23.38
2018-07-28T06:54:13.354Z,23.22
2018-07-28T06:56:42.723Z,23.30
2018-07-28T06:59:12.179Z,23.35
2018-07-28T07:01:41.889Z,23.32
2018-07-28T07:04:11.237Z,23.38
2018-07-28T07:06:40.628Z,23.39
2018-07-28T07:09:11.430Z,23.46
2018-07-28T07:11:40.947Z,23.56
2018-07-28T07:14:10.748Z,23.70
2018-07-28T07:16:40.441Z,23.82
2018-07-28T07:19:09.810Z,24.00
2018-07-28T07:21:39.406Z,24.15
2018-07-28T07:24:10.704Z,24.24
2018-07-28T07:26:43.193Z,24.32
2018-07-28T07:29:12.785Z,24.44
2018-07-28T07:31:42.883Z,24.53
2018-07-28T07:34:12.633Z,24.60
2018-07-28T07:36:43.075Z,24.64
2018-07-28T07:39:12.784Z,24.70
2018-07-28T07:41:42.479Z,24.75
2018-07-28T07:44:12.633Z,24.84
2018-07-28T07:46:42.020Z,24.97
2018-07-28T07:49:12.696Z,25.05
2018-07-28T07:51:46.208Z,25.16
2018-07-28T07:54:16.026Z,25.27
2018-07-28T07:56:45.904Z,25.33
2018-07-28T07:59:16.292Z,25.63
2018-07-28T08:01:47.169Z,25.71
2018-07-28T08:04:16.528Z,25.75
2018-07-28T08:06:46.557Z,25.79
2018-07-28T08:09:15.930Z,25.85
2018-07-28T08:11:45.275Z,25.82
2018-07-28T08:14:15.430Z,25.85
2018-07-28T08:16:44.759Z,25.93
2018-07-28T08:19:14.096Z,25.95
2018-07-28T08:21:44.271Z,25.97
2018-07-28T08:24:13.616Z,25.94
2018-07-28T08:26:44.194Z,26.24
2018-07-28T08:29:14.927Z,26.37
2018-07-28T08:31:44.287Z,26.58
2018-07-28T08:34:13.670Z,26.66
2018-07-28T08:36:43.032Z,26.79
2018-07-28T08:39:14.663Z,26.88
2018-07-28T08:41:44.545Z,26.86
2018-07-28T08:44:14.757Z,26.91
2018-07-28T08:46:44.421Z,27.04
2018-07-28T08:49:13.811Z,27.16
2018-07-28T08:51:43.331Z,27.17
2018-07-28T08:54:12.707Z,27.24
2018-07-28T08:56:42.075Z,27.23
2018-07-28T08:59:11.809Z,27.22
2018-07-28T09:01:41.201Z,27.13
2018-07-28T09:04:10.594Z,27.24
2018-07-28T09:06:39.946Z,27.26
2018-07-28T09:09:10.440Z,27.54
2018-07-28T09:11:39.860Z,27.50
2018-07-28T09:14:09.880Z,27.73
2018-07-28T09:16:40.212Z,27.82
2018-07-28T09:19:09.556Z,27.80
2018-07-28T09:21:38.937Z,27.91
2018-07-28T09:24:08.314Z,28.19
2018-07-28T09:26:38.624Z,28.30
2018-07-28T09:29:07.999Z,28.43
2018-07-28T09:31:37.367Z,28.33
2018-07-28T09:34:06.783Z,28.29
2018-07-28T09:36:36.154Z,28.49
2018-07-28T09:39:09.030Z,28.63
2018-07-28T09:41:38.417Z,28.76
2018-07-28T09:44:07.961Z,28.91
2018-07-28T09:46:37.632Z,28.98
2018-07-28T09:49:07.356Z,28.96
2018-07-28T09:51:37.707Z,29.01
2018-07-28T09:54:07.102Z,29.14
2018-07-28T09:56:39.023Z,29.12
2018-07-28T09:59:08.424Z,29.36
2018-07-28T10:01:37.760Z,29.69
2018-07-28T10:04:07.148Z,29.72
2018-07-28T10:06:36.796Z,29.65
2018-07-28T10:09:09.421Z,29.78
2018-07-28T10:11:39.545Z,29.70
2018-07-28T10:14:09.414Z,29.68
2018-07-28T10:16:38.818Z,29.69
2018-07-28T10:19:08.183Z,29.91
2018-07-28T10:21:37.585Z,29.93
2018-07-28T10:24:07.245Z,29.86
2018-07-28T10:26:36.697Z,30.16
2018-07-28T10:29:06.083Z,30.58
2018-07-28T10:31:35.810Z,30.64
2018-07-28T10:34:05.212Z,30.65
2018-07-28T10:36:36.264Z,30.65
2018-07-28T10:39:10.359Z,30.52
2018-07-28T10:41:39.767Z,30.80
2018-07-28T10:44:09.140Z,30.90
2018-07-28T10:46:38.484Z,31.10
2018-07-28T10:49:07.953Z,31.21
2018-07-28T10:51:37.327Z,31.32
2018-07-28T10:54:07.109Z,31.33
2018-07-28T10:56:36.837Z,30.91
2018-07-28T10:59:06.308Z,31.01
2018-07-28T11:01:39.169Z,31.05
2018-07-28T11:04:08.565Z,31.33
2018-07-28T11:06:37.970Z,31.48
2018-07-28T11:09:09.391Z,31.53
2018-07-28T11:11:39.989Z,31.62
2018-07-28T11:14:09.989Z,31.82
2018-07-28T11:16:39.736Z,31.80
2018-07-28T11:19:09.210Z,31.83
2018-07-28T11:21:39.466Z,31.77
2018-07-28T11:24:09.956Z,31.77
2018-07-28T11:26:40.084Z,32.04
2018-07-28T11:29:09.444Z,32.22
2018-07-28T11:31:50.047Z,32.50
2018-07-28T11:34:30.590Z,32.08
2018-07-28T11:37:13.007Z,32.31
2018-07-28T11:39:53.320Z,32.42
2018-07-28T11:42:37.971Z,32.19
2018-07-28T11:45:16.558Z,31.91
2018-07-28T11:47:45.928Z,31.83
2018-07-28T11:50:15.336Z,31.85
2018-07-28T11:52:45.100Z,32.23
2018-07-28T11:55:16.928Z,32.45
2018-07-28T11:57:46.349Z,32.64
2018-07-28T12:00:15.921Z,32.73
2018-07-28T12:02:45.309Z,32.53
2018-07-28T12:05:14.677Z,32.55
2018-07-28T12:07:45.397Z,32.68
2018-07-28T12:10:14.809Z,32.74
2018-07-28T12:12:47.612Z,32.81
2018-07-28T12:15:18.137Z,32.94
2018-07-28T12:17:47.586Z,33.08
2018-07-28T12:20:17.015Z,33.30
2018-07-28T12:22:46.387Z,33.18
2018-07-28T12:25:16.157Z,33.26
2018-07-28T12:27:46.179Z,33.12
2018-07-28T12:30:16.076Z,33.37
2018-07-28T12:32:46.284Z,33.32
2018-07-28T12:35:15.632Z,33.27
2018-07-28T12:37:45.636Z,33.37
2018-07-28T12:40:15.336Z,33.37
2018-07-28T12:42:44.737Z,33.40
2018-07-28T12:45:14.682Z,33.44
2018-07-28T12:47:44.068Z,33.35
2018-07-28T12:50:13.434Z,33.24
2018-07-28T12:52:43.663Z,33.18
2018-07-28T12:55:13.105Z,33.14
2018-07-28T12:57:42.627Z,32.06
2018-07-28T13:00:11.997Z,31.93
2018-07-28T13:02:42.903Z,31.83
2018-07-28T13:05:12.303Z,30.71
2018-07-28T13:07:41.757Z,31.75
2018-07-28T13:10:11.305Z,31.44
2018-07-28T13:12:40.829Z,31.43
2018-07-28T13:15:10.215Z,31.69
2018-07-28T13:17:40.271Z,32.07
2018-07-28T13:20:09.644Z,32.23
2018-07-28T13:22:40.341Z,32.33
2018-07-28T13:25:09.752Z,32.14
2018-07-28T13:27:39.696Z,31.89
2018-07-28T13:30:10.054Z,32.18
2018-07-28T13:32:39.422Z,32.35
2018-07-28T13:35:08.816Z,32.23
2018-07-28T13:37:38.931Z,32.23
2018-07-28T13:40:08.540Z,32.35
2018-07-28T13:42:38.605Z,32.04
2018-07-28T13:45:08.416Z,32.35
2018-07-28T13:47:37.806Z,32.32
2018-07-28T13:50:07.535Z,31.54
2018-07-28T13:52:36.925Z,32.29
2018-07-28T13:55:08.945Z,32.38
2018-07-28T13:57:38.356Z,32.51
2018-07-28T14:00:08.293Z,32.81
2018-07-28T14:02:37.669Z,32.86
2018-07-28T14:05:07.101Z,32.93
2018-07-28T14:07:37.293Z,32.83
2018-07-28T14:10:07.708Z,32.90
2018-07-28T14:12:38.056Z,33.02
2018-07-28T14:15:08.766Z,32.36
2018-07-28T14:17:38.424Z,32.89
2018-07-28T14:20:08.173Z,32.93
2018-07-28T14:22:38.104Z,32.96
2018-07-28T14:25:08.150Z,33.03
2018-07-28T14:27:39.768Z,32.97
2018-07-28T14:30:09.920Z,32.72
2018-07-28T14:32:39.265Z,32.36
2018-07-28T14:35:08.976Z,32.23
2018-07-28T14:37:40.896Z,32.13
2018-07-28T14:40:10.424Z,32.05
2018-07-28T14:42:40.874Z,32.09
2018-07-28T14:45:11.224Z,32.12
2018-07-28T14:47:40.852Z,31.94
2018-07-28T14:50:10.229Z,32.00
2018-07-28T14:52:39.590Z,31.91
2018-07-28T14:55:09.098Z,31.81
2018-07-28T14:57:39.843Z,31.81
2018-07-28T15:00:10.023Z,31.42
2018-07-28T15:02:39.401Z,31.64
2018-07-28T15:05:09.113Z,31.45
2018-07-28T15:07:38.486Z,31.41
2018-07-28T15:10:08.161Z,31.34
2018-07-28T15:12:38.486Z,31.32
2018-07-28T15:15:08.846Z,31.34
2018-07-28T15:17:40.011Z,31.47
2018-07-28T15:20:09.388Z,31.51
2018-07-28T15:22:38.749Z,31.60
2018-07-28T15:25:08.452Z,31.62
2018-07-28T15:27:38.024Z,31.55
2018-07-28T15:30:08.338Z,31.71
2018-07-28T15:32:37.686Z,31.70
2018-07-28T15:35:07.072Z,31.72
2018-07-28T15:37:37.751Z,31.71
2018-07-28T15:40:07.176Z,31.62
2018-07-28T15:42:38.530Z,31.58
2018-07-28T15:45:08.983Z,31.62
2018-07-28T15:47:38.344Z,31.59
2018-07-28T15:50:08.074Z,31.33
2018-07-28T15:52:37.420Z,31.06
2018-07-28T15:55:07.251Z,31.12
2018-07-28T15:57:36.621Z,31.22
2018-07-28T16:00:06.473Z,30.04
2018-07-28T16:02:35.865Z,31.29
2018-07-28T16:05:06.017Z,31.32
2018-07-28T16:07:35.855Z,31.13
2018-07-28T16:10:06.808Z,31.06
2018-07-28T16:12:36.791Z,31.04
2018-07-28T16:15:07.579Z,30.47
2018-07-28T16:17:37.049Z,31.15
2018-07-28T16:20:06.718Z,31.17
2018-07-28T16:22:36.231Z,31.20
2018-07-28T16:25:06.678Z,31.18
2018-07-28T16:27:36.570Z,31.15
2018-07-28T16:30:08.500Z,31.15
2018-07-28T16:32:37.932Z,31.17
2018-07-28T16:35:08.519Z,31.20
2018-07-28T16:37:40.596Z,31.11
2018-07-28T16:40:12.017Z,31.22
2018-07-28T16:42:42.521Z,31.16
2018-07-28T16:45:11.919Z,31.16
2018-07-28T16:47:41.302Z,31.10
2018-07-28T16:50:11.064Z,31.00
2018-07-28T16:52:40.649Z,30.90
2018-07-28T16:55:10.748Z,30.90
2018-07-28T16:57:40.097Z,30.83
2018-07-28T17:00:10.861Z,30.79
2018-07-28T17:02:40.660Z,30.79
2018-07-28T17:05:11.111Z,30.72
2018-07-28T17:07:40.870Z,30.61
2018-07-28T17:10:10.468Z,30.62
2018-07-28T17:12:41.178Z,30.66
2018-07-28T17:15:11.572Z,30.61
2018-07-28T17:17:40.953Z,30.58
2018-07-28T17:20:10.361Z,30.58
2018-07-28T17:22:40.243Z,30.61
2018-07-28T17:25:09.721Z,30.62
2018-07-28T17:27:42.880Z,30.61
2018-07-28T17:30:12.280Z,30.62
2018-07-28T17:32:42.589Z,30.66
2018-07-28T17:35:12.525Z,30.57
2018-07-28T17:37:43.480Z,30.49
2018-07-28T17:40:12.886Z,30.43
2018-07-28T17:42:42.255Z,30.38
2018-07-28T17:45:12.211Z,30.34
2018-07-28T17:47:41.583Z,30.28
2018-07-28T17:50:11.015Z,30.22
2018-07-28T17:52:42.310Z,30.18
2018-07-28T17:55:11.805Z,30.14
2018-07-28T17:57:41.532Z,30.11
2018-07-28T18:00:11.775Z,29.43
2018-07-28T18:02:42.591Z,30.05
2018-07-28T18:05:12.094Z,29.99
2018-07-28T18:07:43.112Z,29.91
2018-07-28T18:10:12.485Z,29.87
2018-07-28T18:12:41.835Z,29.81
2018-07-28T18:15:11.794Z,29.79
2018-07-28T18:17:41.229Z,29.74
2018-07-28T18:20:11.652Z,29.72
2018-07-28T18:22:41.099Z,29.66
2018-07-28T18:25:11.901Z,29.61
2018-07-28T18:27:42.138Z,29.57
2018-07-28T18:30:11.588Z,29.56
2018-07-28T18:32:41.128Z,29.51
2018-07-28T18:35:10.854Z,29.47
2018-07-28T18:37:40.234Z,29.42
2018-07-28T18:40:10.587Z,29.38
2018-07-28T18:42:40.053Z,29.30
2018-07-28T18:45:12.833Z,29.24
2018-07-28T18:47:42.236Z,29.21
2018-07-28T18:50:16.448Z,29.24
2018-07-28T18:52:46.055Z,29.22
2018-07-28T18:55:15.813Z,29.18
2018-07-28T18:57:45.989Z,29.12
2018-07-28T19:00:17.379Z,29.09
2018-07-28T19:02:47.955Z,29.03
2018-07-28T19:05:18.625Z,28.95
2018-07-28T19:07:53.296Z,28.89
2018-07-28T19:10:35.289Z,28.82
2018-07-28T19:13:10.196Z,28.70
2018-07-28T19:15:39.868Z,28.60
2018-07-28T19:18:14.483Z,28.52
2018-07-28T19:20:44.769Z,28.46
2018-07-28T19:23:19.436Z,28.40
2018-07-28T19:25:49.530Z,28.34
2018-07-28T19:28:24.112Z,28.25
2018-07-28T19:30:53.568Z,28.02
2018-07-28T19:33:23.098Z,27.86
2018-07-28T19:35:59.270Z,27.72
2018-07-28T19:38:29.271Z,27.61
2018-07-28T19:40:59.410Z,27.50
2018-07-28T19:43:29.589Z,27.46
2018-07-28T19:45:59.962Z,27.39
2018-07-28T19:48:30.334Z,27.32
2018-07-28T19:51:04.948Z,27.34
2018-07-28T19:53:34.373Z,27.29
2018-07-28T19:56:04.454Z,27.22
2018-07-28T19:58:39.549Z,27.16
2018-07-28T20:01:13.730Z,27.06
2018-07-28T20:03:44.139Z,27.04
2018-07-28T20:06:13.984Z,27.05
2018-07-28T20:08:45.410Z,27.04
2018-07-28T20:11:15.592Z,27.01
2018-07-28T20:13:45.413Z,26.88
2018-07-28T20:16:14.996Z,26.86
2018-07-28T20:18:45.720Z,26.86
2018-07-28T20:21:15.908Z,26.91
2018-07-28T20:23:45.270Z,26.91
2018-07-28T20:26:15.413Z,26.86
2018-07-28T20:28:45.466Z,26.77
2018-07-28T20:31:14.832Z,26.67
2018-07-28T20:33:44.198Z,26.58
2018-07-28T20:36:17.856Z,26.49
2018-07-28T20:38:47.677Z,26.41
2018-07-28T20:41:19.713Z,26.36
2018-07-28T20:43:49.397Z,26.32
2018-07-28T20:46:18.788Z,26.28
2018-07-28T20:48:49.047Z,26.16
2018-07-28T20:51:19.754Z,26.04
2018-07-28T20:53:49.110Z,26.07
2018-07-28T20:56:18.463Z,26.02
2018-07-28T20:58:48.403Z,25.97
2018-07-28T21:01:21.601Z,25.90
2018-07-28T21:03:51.315Z,25.81
2018-07-28T21:06:21.371Z,25.79
2018-07-28T21:08:50.789Z,25.91
2018-07-28T21:11:20.145Z,25.92
2018-07-28T21:13:49.514Z,25.80
2018-07-28T21:16:23.303Z,25.63
2018-07-28T21:18:52.925Z,25.56
2018-07-28T21:21:22.271Z,25.56
2018-07-28T21:23:51.644Z,25.61
2018-07-28T21:26:21.041Z,25.69
2018-07-28T21:28:50.442Z,25.69
2018-07-28T21:31:19.816Z,25.65
2018-07-28T21:33:49.606Z,25.58
2018-07-28T21:36:19.016Z,25.60
2018-07-28T21:38:48.414Z,25.59
2018-07-28T21:41:17.839Z,25.49
2018-07-28T21:43:47.241Z,25.44
2018-07-28T21:46:16.619Z,25.35
2018-07-28T21:48:45.974Z,25.36
2018-07-28T21:51:15.889Z,25.43
2018-07-28T21:53:45.317Z,25.40
2018-07-28T21:56:14.764Z,25.32
2018-07-28T21:58:44.136Z,25.28
2018-07-28T22:01:16.470Z,25.37
2018-07-28T22:03:46.157Z,25.37
2018-07-28T22:06:15.533Z,25.37
2018-07-28T22:08:44.912Z,25.39
2018-07-28T22:11:14.922Z,25.39
2018-07-28T22:13:44.530Z,25.36
2018-07-28T22:16:13.943Z,25.38
2018-07-28T22:18:43.797Z,25.43
2018-07-28T22:21:13.687Z,25.47
2018-07-28T22:23:43.657Z,25.44
2018-07-28T22:26:13.064Z,25.42
2018-07-28T22:28:42.536Z,25.36
2018-07-28T22:31:14.188Z,25.27
2018-07-28T22:33:43.589Z,24.96
2018-07-28T22:36:13.241Z,24.89
2018-07-28T22:38:42.652Z,24.85
2018-07-28T22:41:12.540Z,24.72
2018-07-28T22:43:42.127Z,24.70
2018-07-28T22:46:11.611Z,24.61
2018-07-28T22:48:41.132Z,24.57
2018-07-28T22:51:11.184Z,24.56
2018-07-28T22:53:40.625Z,24.60
2018-07-28T22:56:10.276Z,24.66
2018-07-28T22:58:39.629Z,24.66
2018-07-28T23:01:09.339Z,24.65
2018-07-28T23:03:38.911Z,24.69
2018-07-28T23:06:08.315Z,24.71
2018-07-28T23:08:38.242Z,24.76
2018-07-28T23:11:07.979Z,24.84
2018-07-28T23:13:38.833Z,24.91
2018-07-28T23:16:08.196Z,24.97
2018-07-28T23:18:37.604Z,24.99
2018-07-28T23:21:07.646Z,24.98
2018-07-28T23:23:37.001Z,25.00
2018-07-28T23:26:06.387Z,24.99
2018-07-28T23:28:35.750Z,25.00
2018-07-28T23:31:05.559Z,25.03
2018-07-28T23:33:34.919Z,25.02
2018-07-28T23:36:05.483Z,25.06
2018-07-28T23:38:34.855Z,25.10
2018-07-28T23:41:04.517Z,25.11
2018-07-28T23:43:33.973Z,25.10
2018-07-28T23:46:03.380Z,25.10
2018-07-28T23:48:32.824Z,25.11
2018-07-28T23:51:02.285Z,25.12
2018-07-28T23:53:31.786Z,25.06
2018-07-28T23:56:01.774Z,25.06
2018-07-28T23:58:32.891Z,25.03
